Time;durP1;ratioP1;P1;durP2;ratioP2;P2;SDS_P1;SDS_P2;PMS_P1;PMS_P2;Temp;Humidity;BMP_temperature;BMP_pressure;BME280_temperature;BME280_humidity;BME280_pressure;Samples;Min_cycle;Max_cycle;Signal;HPM_P1;HPM_P2
2022/04/03 00:00:41;;;;;;;4.15;2.40;;;;;;;;;;5003129;27;20147;-79
2022/04/03 00:03:08;;;;;;;3.72;2.50;;;;;;;;;;4983724;28;20146;-78
2022/04/03 00:05:38;;;;;;;5.18;3.90;;;;;;;;;;4984785;27;21256;-79
2022/04/03 00:08:08;;;;;;;3.97;2.15;;;;;;;;;;4990193;28;21253;-78
2022/04/03 00:10:34;;;;;;;6.88;3.00;;;;;;;;;;4990992;27;20061;-78
2022/04/03 00:13:01;;;;;;;3.67;2.60;;;;;;;;;;4983671;28;20103;-79
2022/04/03 00:15:27;;;;;;;4.43;1.80;;;;;;;;;;4985514;28;20113;-78
2022/04/03 00:17:53;;;;;;;2.92;2.45;;;;;;;;;;4981528;28;21785;-77
2022/04/03 00:20:19;;;;;;;3.97;3.10;;;;;;;;;;4983629;28;20042;-78
2022/04/03 00:22:48;;;;;;;6.75;3.08;;;;;;;;;;4981654;28;20046;-79
2022/04/03 00:25:18;;;;;;;3.72;2.35;;;;;;;;;;4981741;28;20509;-78
2022/04/03 00:27:44;;;;;;;6.32;3.70;;;;;;;;;;4983169;28;20649;-79
2022/04/03 00:30:11;;;;;;;5.32;3.80;;;;;;;;;;4983997;28;20126;-79
2022/04/03 00:32:37;;;;;;;5.53;2.63;;;;;;;;;;4983354;28;20519;-79
2022/04/03 00:35:04;;;;;;;5.25;2.47;;;;;;;;;;4983941;28;20127;-79
2022/04/03 00:37:31;;;;;;;4.38;2.58;;;;;;;;;;4981477;28;20122;-79
2022/04/03 00:39:57;;;;;;;5.78;2.78;;;;;;;;;;4984574;28;20158;-79
2022/04/03 00:42:24;;;;;;;4.70;2.85;;;;;;;;;;4981567;28;20917;-78
2022/04/03 00:44:50;;;;;;;4.18;2.70;;;;;;;;;;4983202;28;20129;-78
2022/04/03 00:47:18;;;;;;;7.72;3.38;;;4.60;99.90;;;;;;4984727;28;20932;-79
2022/04/03 00:49:45;;;;;;;11.50;3.00;;;3.50;99.90;;;;;;4980618;28;20535;-78
2022/04/03 00:52:11;;;;;;;4.13;2.42;;;3.50;99.90;;;;;;4983319;28;20088;-79
2022/04/03 00:54:37;;;;;;;4.78;2.72;;;3.50;99.90;;;;;;4983424;28;20049;-78
2022/04/03 00:57:07;;;;;;;4.55;3.33;;;3.50;99.90;;;;;;4982922;28;20081;-78
2022/04/03 00:59:34;;;;;;;4.50;2.75;;;3.40;99.90;;;;;;4982811;28;20031;-78
2022/04/03 01:02:00;;;;;;;2.83;1.92;;;3.40;99.90;;;;;;4980664;28;20186;-78
2022/04/03 01:04:26;;;;;;;5.53;2.97;;;3.40;99.90;;;;;;4982990;28;20100;-79
2022/04/03 01:06:52;;;;;;;4.53;2.85;;;3.40;99.90;;;;;;4979798;28;20508;-78
2022/04/03 01:09:17;;;;;;;5.82;3.03;;;3.40;99.90;;;;;;4980892;28;20122;-78
2022/04/03 01:11:45;;;;;;;4.32;2.55;;;3.50;99.90;;;;;;4982533;28;20528;-79
2022/04/03 01:14:11;;;;;;;6.32;3.33;;;3.50;99.90;;;;;;4979469;28;20170;-79
2022/04/03 01:16:38;;;;;;;3.97;2.40;;;3.50;99.90;;;;;;4979643;28;20051;-79
2022/04/03 01:19:04;;;;;;;7.07;3.20;;;3.50;99.90;;;;;;4971688;28;20701;-79
2022/04/03 01:21:30;;;;;;;5.38;2.67;;;3.50;99.90;;;;;;4977311;28;20139;-78
2022/04/03 01:23:56;;;;;;;2.97;1.90;;;3.60;99.90;;;;;;4981340;28;20465;-79
2022/04/03 01:26:25;;;;;;;6.18;2.88;;;3.60;99.90;;;;;;4966798;28;20043;-79
2022/04/03 01:28:51;;;;;;;7.03;3.17;;;;;;;;;;4968013;28;20054;-79
2022/04/03 01:31:18;;;;;;;4.75;3.08;;;;;;;;;;4980182;28;20054;-79
2022/04/03 01:33:44;;;;;;;3.78;2.30;;;;;;;;;;4968423;28;20057;-79
2022/04/03 01:36:10;;;;;;;4.93;3.38;;;;;;;;;;4981831;28;20043;-79
2022/04/03 01:38:36;;;;;;;4.95;2.10;;;;;;;;;;4971929;28;20161;-79
2022/04/03 01:41:02;;;;;;;4.82;2.45;;;;;;;;;;4979054;28;20101;-79
2022/04/03 01:43:29;;;;;;;5.13;2.50;;;;;;;;;;4969576;28;20544;-79
2022/04/03 01:45:55;;;;;;;4.97;2.92;;;;;;;;;;4984646;28;20047;-79
2022/04/03 01:48:21;;;;;;;3.17;2.33;;;;;;;;;;4981747;28;20049;-79
2022/04/03 01:50:48;;;;;;;4.00;3.03;;;;;;;;;;4984188;28;20137;-79
2022/04/03 01:53:14;;;;;;;4.03;2.20;;;;;;;;;;4980648;28;20249;-78
2022/04/03 01:55:40;;;;;;;2.78;1.20;;;;;;;;;;4965215;28;20043;-79
2022/04/03 01:58:08;;;;;;;4.25;2.33;;;;;;;;;;4980673;28;20615;-79
2022/04/03 02:00:34;;;;;;;2.65;1.40;;;;;;;;;;4981300;28;20539;-79
2022/04/03 02:03:00;;;;;;;3.08;2.22;;;;;;;;;;4980474;28;20043;-79
2022/04/03 02:05:26;;;;;;;3.85;2.00;;;;;;;;;;4969385;28;21172;-79
2022/04/03 02:07:52;;;;;;;3.90;2.47;;;;;;;;;;4981769;28;20042;-79
2022/04/03 02:10:19;;;;;;;3.72;2.45;;;;;;;;;;4978532;28;20070;-78
2022/04/03 02:12:45;;;;;;;4.20;2.05;;;;;;;;;;4965164;28;20141;-78
2022/04/03 02:15:12;;;;;;;4.93;2.45;;;;;;;;;;4973022;28;20063;-79
2022/04/03 02:17:40;;;;;;;5.35;2.40;;;;;;;;;;4982607;28;20045;-79
2022/04/03 02:20:08;;;;;;;4.22;2.03;;;;;;;;;;4984259;28;20050;-79
2022/04/03 02:22:35;;;;;;;6.18;1.95;;;;;;;;;;4985618;28;20133;-79
2022/04/03 02:25:03;;;;;;;2.45;2.05;;;;;;;;;;4979736;28;20050;-79
2022/04/03 02:27:30;;;;;;;3.88;2.40;;;;;;;;;;4982256;28;20042;-79
2022/04/03 02:29:56;;;;;;;3.85;2.30;;;;;;;;;;4983610;28;20038;-79
2022/04/03 02:32:23;;;;;;;3.72;2.25;;;;;;;;;;4982108;28;20046;-79
2022/04/03 02:34:49;;;;;;;4.07;2.08;;;;;;;;;;4984495;28;20115;-79
2022/04/03 02:37:15;;;;;;;5.53;1.50;;;;;;;;;;4978919;28;20047;-79
2022/04/03 02:39:41;;;;;;;2.33;1.67;;;;;;;;;;4982624;28;20047;-79
2022/04/03 02:42:08;;;;;;;5.32;1.90;;;;;;;;;;4985795;28;20051;-79
2022/04/03 02:44:34;;;;;;;3.95;1.95;;;;;;;;;;4980089;28;20519;-79
2022/04/03 02:47:01;;;;;;;5.90;2.15;;;;;;;;;;4981850;28;20043;-77
2022/04/03 02:49:27;;;;;;;3.38;1.77;;;;;;;;;;4983095;28;20082;-79
2022/04/03 02:51:53;;;;;;;4.40;2.25;;;;;;;;;;4980740;28;20563;-79
2022/04/03 02:54:19;;;;;;;5.75;2.25;;;;;;;;;;4986839;28;20042;-79
2022/04/03 02:56:45;;;;;;;4.82;1.88;;;;;;;;;;4980364;28;20133;-79
2022/04/03 02:59:12;;;;;;;5.45;1.60;;;;;;;;;;4977258;28;20121;-78
2022/04/03 03:01:38;;;;;;;3.42;2.08;;;;;;;;;;4981029;28;20043;-79
2022/04/03 03:04:04;;;;;;;8.20;2.17;;;;;;;;;;4982541;28;20773;-79
2022/04/03 03:06:31;;;;;;;7.30;2.58;;;;;;;;;;4981321;28;20038;-79
2022/04/03 03:08:57;;;;;;;3.03;2.38;;;;;;;;;;4987256;28;20096;-79
2022/04/03 03:11:23;;;;;;;7.15;3.35;;;;;;;;;;4982797;28;20099;-78
2022/04/03 03:13:49;;;;;;;9.73;2.17;;;;;;;;;;4983046;27;20251;-79
2022/04/03 03:16:15;;;;;;;4.20;1.98;;;;;;;;;;4989492;28;20042;-79
2022/04/03 03:18:42;;;;;;;2.67;2.10;;;;;;;;;;4984719;28;20038;-78
2022/04/03 03:21:08;;;;;;;3.88;1.98;;;;;;;;;;5001843;27;20092;-79
2022/04/03 03:23:34;;;;;;;4.35;2.30;;;;;;;;;;5001054;27;20451;-79
2022/04/03 03:26:00;;;;;;;6.68;2.78;;;;;;;;;;5005880;27;20865;-78
2022/04/03 03:28:26;;;;;;;1.80;1.55;;;;;;;;;;5000580;28;20429;-79
2022/04/03 03:30:52;;;;;;;2.92;1.95;;;;;;;;;;4999219;27;20565;-79
2022/04/03 03:33:18;;;;;;;3.33;1.77;;;;;;;;;;5003500;27;20609;-78
2022/04/03 03:35:44;;;;;;;3.50;2.42;;;;;;;;;;5002031;27;20042;-79
2022/04/03 03:38:11;;;;;;;1.92;1.00;;;;;;;;;;4987405;28;20259;-78
2022/04/03 03:40:39;;;;;;;2.38;1.83;;;;;;;;;;5003030;27;20042;-78
2022/04/03 03:43:05;;;;;;;5.43;2.40;;;;;;;;;;4988046;28;20053;-78
2022/04/03 03:45:31;;;;;;;3.00;1.95;;;;;;;;;;5001404;27;20038;-78
2022/04/03 03:47:57;;;;;;;3.45;2.30;;;;;;;;;;4999802;27;20535;-79
2022/04/03 03:50:24;;;;;;;3.75;2.00;;;;;;;;;;4983242;28;20133;-79
2022/04/03 03:52:50;;;;;;;4.93;2.40;;;;;;;;;;4998827;27;20038;-78
2022/04/03 03:55:17;;;;;;;4.85;2.08;;;;;;;;;;4986619;28;20122;-78
2022/04/03 03:57:46;;;;;;;7.28;2.30;;;;;;;;;;5001850;27;20053;-78
2022/04/03 04:00:13;;;;;;;7.15;2.55;;;;;;;;;;4997851;27;20050;-78
2022/04/03 04:02:39;;;;;;;1.83;1.08;;;;;;;;;;4987103;28;20146;-79
2022/04/03 04:05:06;;;;;;;4.93;3.05;;;;;;;;;;4988727;28;20599;-79
2022/04/03 04:07:42;;;;;;;4.45;3.13;;;;;;;;;;5000807;27;20053;-79
2022/04/03 04:10:09;;;;;;;2.53;2.25;;;;;;;;;;5005440;27;20057;-78
2022/04/03 04:12:35;;;;;;;0.60;0.40;;;;;;;;;;5002036;27;21337;-77
2022/04/03 04:15:03;;;;;;;6.00;2.10;;;;;;;;;;4990147;27;20263;-78
2022/04/03 04:17:33;;;;;;;4.80;2.78;;;;;;;;;;5002921;27;20038;-79
2022/04/03 04:19:59;;;;;;;5.18;2.00;;;;;;;;;;5003523;27;20042;-81
2022/04/03 04:22:26;;;;;;;6.53;2.80;;;;;;;;;;4994366;27;20038;-81
2022/04/03 04:24:52;;;;;;;6.03;2.42;;;;;;;;;;5001842;28;20106;-79
2022/04/03 04:27:18;;;;;;;2.42;1.38;;;;;;;;;;5014285;27;20034;-79
2022/04/03 04:29:44;;;;;;;1.75;1.33;;;;;;;;;;5015895;27;20086;-78
2022/04/03 04:32:10;;;;;;;2.83;1.73;;;;;;;;;;5011680;27;20092;-78
2022/04/03 04:34:36;;;;;;;3.40;2.15;;;;;;;;;;5011440;27;20094;-82
2022/04/03 04:37:02;;;;;;;10.93;2.13;;;;;;;;;;4993171;28;20161;-78
2022/04/03 04:39:29;;;;;;;1.33;1.23;;;;;;;;;;4998066;27;20406;-78
2022/04/03 04:41:55;;;;;;;4.53;1.80;;;;;;;;;;5024094;27;20052;-79
2022/04/03 04:44:21;;;;;;;5.07;1.98;;;;;;;;;;5009320;27;20037;-79
2022/04/03 04:46:47;;;;;;;4.53;2.40;;;;;;;;;;5013684;27;20089;-79
2022/04/03 04:49:14;;;;;;;6.97;2.13;;;;;;;;;;4991002;27;20062;-78
2022/04/03 04:51:40;;;;;;;3.28;1.83;;;;;;;;;;5009031;27;20044;-77
2022/04/03 04:54:07;;;;;;;1.30;1.02;;;;;;;;;;5010628;27;20092;-78
2022/04/03 04:56:33;;;;;;;5.53;2.88;;;;;;;;;;4993133;27;20042;-78
2022/04/03 04:59:00;;;;;;;4.82;2.00;;;;;;;;;;5009476;27;20136;-79
2022/04/03 05:01:26;;;;;;;3.50;1.75;;;;;;;;;;5008926;27;20042;-78
2022/04/03 05:03:52;;;;;;;1.60;1.25;;;;;;;;;;5000156;28;20038;-79
2022/04/03 05:06:18;;;;;;;8.02;2.20;;;;;;;;;;5015817;27;20046;-79
2022/04/03 05:08:45;;;;;;;2.90;1.48;;;;;;;;;;5010407;27;20034;-78
2022/04/03 05:11:13;;;;;;;5.07;2.50;;;;;;;;;;4995276;28;20045;-80
2022/04/03 05:13:39;;;;;;;4.55;1.58;;;;;;;;;;4990823;28;20044;-78
2022/04/03 05:16:06;;;;;;;3.90;1.75;;;;;;;;;;4970480;28;20047;-78
2022/04/03 05:18:32;;;;;;;2.35;1.55;;;;;;;;;;4987746;28;20694;-79
2022/04/03 05:20:58;;;;;;;3.85;1.88;;;;;;;;;;4990998;28;20042;-79
2022/04/03 05:23:24;;;;;;;4.15;1.30;;;;;;;;;;4980141;28;20031;-78
2022/04/03 05:25:50;;;;;;;8.05;3.15;;;;;;;;;;4986712;28;20136;-78
2022/04/03 05:28:16;;;;;;;4.88;2.72;;;;;;;;;;4989138;28;20045;-78
2022/04/03 05:30:42;;;;;;;8.43;2.65;;;;;;;;;;4974596;28;20046;-78
2022/04/03 05:33:08;;;;;;;2.40;2.00;;;;;;;;;;4994141;28;20042;-78
2022/04/03 05:35:35;;;;;;;9.68;2.17;;;;;;;;;;4973169;28;20042;-78
2022/04/03 05:38:01;;;;;;;3.28;1.88;;;;;;;;;;4986694;28;20042;-78
2022/04/03 05:40:27;;;;;;;4.53;2.17;;;;;;;;;;4988600;28;20058;-78
2022/04/03 05:42:53;;;;;;;4.32;1.85;;;;;;;;;;4988252;28;20077;-77
2022/04/03 05:45:19;;;;;;;4.40;2.20;;;;;;;;;;4988472;28;20047;-78
2022/04/03 05:47:45;;;;;;;4.50;2.47;;;;;;;;;;4974001;28;20043;-77
2022/04/03 05:50:14;;;;;;;4.32;2.15;;;;;;;;;;4991035;28;20046;-79
2022/04/03 05:52:48;;;;;;;5.05;2.20;;;;;;;;;;4971252;28;20581;-78
2022/04/03 05:55:16;;;;;;;5.30;2.30;;;;;;;;;;4969315;28;20131;-78
2022/04/03 05:57:43;;;;;;;7.97;3.38;;;;;;;;;;4974620;28;20042;-78
2022/04/03 06:00:13;;;;;;;4.55;1.95;;;;;;;;;;4978719;28;20120;-78
2022/04/03 06:02:49;;;;;;;4.00;2.05;;;;;;;;;;4988246;28;20141;-86
2022/04/03 06:05:17;;;;;;;5.13;2.55;;;;;;;;;;4980072;28;20546;-81
2022/04/03 06:07:43;;;;;;;5.85;2.08;;;;;;;;;;4974299;28;20667;-78
2022/04/03 06:10:10;;;;;;;4.03;1.83;;;;;;;;;;4974717;28;20049;-79
2022/04/03 06:12:36;;;;;;;0.47;0.28;;;;;;;;;;5008074;28;20046;-81
2022/04/03 06:15:02;;;;;;;5.90;2.40;;;;;;;;;;5006612;28;20455;-80
2022/04/03 06:17:28;;;;;;;2.42;2.22;;;;;;;;;;4984363;28;20126;-82
2022/04/03 06:19:55;;;;;;;3.78;2.13;;;;;;;;;;4987878;28;20047;-83
2022/04/03 06:22:21;;;;;;;5.43;2.13;;;;;;;;;;4975596;28;20055;-82
2022/04/03 06:24:47;;;;;;;4.32;1.90;;;;;;;;;;4986500;28;20042;-83
2022/04/03 06:27:13;;;;;;;3.45;2.20;;;;;;;;;;4967361;28;20051;-84
2022/04/03 06:29:39;;;;;;;4.65;2.10;;;;;;;;;;4971206;28;20042;-83
2022/04/03 06:32:06;;;;;;;12.07;2.53;;;;;;;;;;4974127;28;20095;-84
2022/04/03 06:34:32;;;;;;;3.53;1.88;;;;;;;;;;4997755;28;20038;-82
2022/04/03 06:36:58;;;;;;;4.70;2.05;;;;;;;;;;4973539;28;20053;-82
2022/04/03 06:39:24;;;;;;;3.13;1.80;;;;;;;;;;4976999;28;20034;-83
2022/04/03 06:41:50;;;;;;;2.42;1.33;;;;;;;;;;4979851;28;20034;-83
2022/04/03 06:44:16;;;;;;;3.00;2.17;;;;;;;;;;4983596;28;20038;-83
2022/04/03 06:46:42;;;;;;;3.45;1.92;;;;;;;;;;4971233;28;20042;-82
2022/04/03 06:49:09;;;;;;;3.08;2.78;;;;;;;;;;4970148;28;20050;-83
2022/04/03 06:51:35;;;;;;;3.95;2.58;;;;;;;;;;4989759;28;20031;-83
2022/04/03 06:54:01;;;;;;;3.22;1.80;;;;;;;;;;4990085;28;20054;-82
2022/04/03 06:56:27;;;;;;;7.57;2.88;;;;;;;;;;4991471;28;20078;-83
2022/04/03 06:58:54;;;;;;;3.30;2.22;;;;;;;;;;4990110;28;20301;-83
2022/04/03 07:01:20;;;;;;;4.93;2.00;;;;;;;;;;4999536;28;20089;-84
2022/04/03 07:03:46;;;;;;;3.92;1.42;;;;;;;;;;4985398;28;20057;-82
2022/04/03 07:06:12;;;;;;;2.30;1.42;;;;;;;;;;4994106;28;20039;-82
2022/04/03 07:08:39;;;;;;;4.65;3.20;;;;;;;;;;4988109;28;20050;-83
2022/04/03 07:11:05;;;;;;;6.38;2.17;;;;;;;;;;4966993;28;20039;-82
2022/04/03 07:13:31;;;;;;;6.18;2.45;;;;;;;;;;4989315;28;20099;-83
2022/04/03 07:15:57;;;;;;;3.38;3.03;;;;;;;;;;4987546;28;20487;-84
2022/04/03 07:18:24;;;;;;;1.73;1.63;;;;;;;;;;4981794;28;20046;-82
2022/04/03 07:20:50;;;;;;;4.07;2.45;;;;;;;;;;4990269;28;20070;-81
2022/04/03 07:23:17;;;;;;;8.13;2.58;;;;;;;;;;4981484;28;20039;-82
2022/04/03 07:25:43;;;;;;;4.45;1.83;;;;;;;;;;4991802;28;20136;-83
2022/04/03 07:28:09;;;;;;;6.47;2.63;;;;;;;;;;4986675;28;20820;-82
2022/04/03 07:30:36;;;;;;;4.20;2.38;;;;;;;;;;4972201;28;20150;-84
2022/04/03 07:33:02;;;;;;;11.85;3.45;;;;;;;;;;4969782;28;20042;-80
2022/04/03 07:35:28;;;;;;;4.53;2.03;;;;;;;;;;4984696;28;20050;-80
2022/04/03 07:37:54;;;;;;;3.78;2.10;;;;;;;;;;4970483;28;20054;-81
2022/04/03 07:40:20;;;;;;;4.60;1.67;;;;;;;;;;4988499;28;20054;-81
2022/04/03 07:42:49;;;;;;;6.05;2.03;;;;;;;;;;4983065;28;20047;-80
2022/04/03 07:45:15;;;;;;;3.08;1.65;;;;;;;;;;4975942;28;21007;-81
2022/04/03 07:47:46;;;;;;;5.90;2.65;;;;;;;;;;4983713;28;20042;-80
2022/04/03 07:50:12;;;;;;;4.28;1.58;;;;;;;;;;4969583;28;20050;-81
2022/04/03 07:52:38;;;;;;;4.28;2.50;;;;;;;;;;4969157;28;20049;-81
2022/04/03 07:55:04;;;;;;;4.00;1.63;;;;;;;;;;4971265;28;20046;-81
2022/04/03 07:57:30;;;;;;;2.88;2.40;;;;;;;;;;4983194;28;20120;-81
2022/04/03 07:59:57;;;;;;;4.75;3.10;;;;;;;;;;4968894;28;20046;-81
2022/04/03 08:02:23;;;;;;;5.55;2.53;;;;;;;;;;4986150;28;20100;-81
2022/04/03 08:04:49;;;;;;;2.75;2.08;;;;;;;;;;4966045;28;20593;-80
2022/04/03 08:07:15;;;;;;;4.47;1.98;;;;;;;;;;4982993;28;20053;-81
2022/04/03 08:09:41;;;;;;;1.95;1.65;;;;;;;;;;4970342;28;20042;-81
2022/04/03 08:12:08;;;;;;;4.47;2.53;;;;;;;;;;4982649;28;20034;-82
2022/04/03 08:14:34;;;;;;;3.80;1.77;;;;;;;;;;4977848;27;20054;-81
2022/04/03 08:17:00;;;;;;;4.45;2.60;;;;;;;;;;5006348;27;20049;-81
2022/04/03 08:19:26;;;;;;;1.23;1.13;;;;;;;;;;5003515;27;20053;-81
2022/04/03 08:21:52;;;;;;;2.15;1.77;;;;;;;;;;4990904;28;20570;-81
2022/04/03 08:24:18;;;;;;;1.75;1.42;;;;;;;;;;5008703;27;20046;-81
2022/04/03 08:26:45;;;;;;;3.58;2.33;;;;;;;;;;4989362;28;20042;-81
2022/04/03 08:29:11;;;;;;;3.70;2.05;;;;;;;;;;5008528;27;20076;-82
2022/04/03 08:31:37;;;;;;;3.22;1.83;;;;;;;;;;5011240;27;20042;-80
2022/04/03 08:34:03;;;;;;;1.75;1.50;;;;;;;;;;5004828;27;22586;-83
2022/04/03 08:36:29;;;;;;;4.35;2.58;;;;;;;;;;4985954;27;20092;-82
2022/04/03 08:38:56;;;;;;;2.08;1.13;;;;;;;;;;5008469;27;20587;-80
2022/04/03 08:41:22;;;;;;;10.70;3.92;;;;;;;;;;5002886;27;20494;-77
2022/04/03 08:43:48;;;;;;;6.53;2.08;;;;;;;;;;4994117;28;20038;-81
2022/04/03 08:46:16;;;;;;;4.60;1.90;;;;;;;;;;5006963;27;20046;-80
2022/04/03 08:48:46;;;;;;;3.55;1.58;;;;;;;;;;4995586;28;20458;-78
2022/04/03 08:51:13;;;;;;;2.42;1.73;;;;;;;;;;4991275;28;20263;-80
2022/04/03 08:53:40;;;;;;;1.77;1.45;;;;;;;;;;4989394;28;20196;-80
2022/04/03 08:56:06;;;;;;;4.53;1.80;;;;;;;;;;5004257;27;20042;-80
2022/04/03 08:58:32;;;;;;;4.57;1.45;;;;;;;;;;4989264;27;20041;-81
2022/04/03 09:00:58;;;;;;;2.45;1.02;;;;;;;;;;5004631;27;20038;-79
2022/04/03 09:03:24;;;;;;;3.03;1.70;;;;;;;;;;4989934;27;20145;-80
2022/04/03 09:05:50;;;;;;;5.72;1.58;;;;;;;;;;4992818;28;20043;-80
2022/04/03 09:08:16;;;;;;;1.98;1.50;;;;;;;;;;4992422;27;20043;-79
2022/04/03 09:10:44;;;;;;;3.97;1.75;;;;;;;;;;4995977;28;20092;-80
2022/04/03 09:13:11;;;;;;;6.03;1.98;;;;;;;;;;5020179;27;20049;-81
2022/04/03 09:15:38;;;;;;;3.08;1.90;;;;;;;;;;4990921;28;20429;-80
2022/04/03 09:18:04;;;;;;;2.53;1.13;;;;;;;;;;5007552;27;20042;-80
2022/04/03 09:20:32;;;;;;;3.55;1.33;;;;;;;;;;4991914;27;20137;-82
2022/04/03 09:23:03;;;;;;;1.60;1.17;;;;;;;;;;4994165;27;20050;-80
2022/04/03 09:25:30;;;;;;;4.97;1.45;;;;;;;;;;5020569;27;20116;-87
2022/04/03 09:28:00;;;;;;;1.00;0.57;;;;;;;;;;5009597;27;20050;-84
2022/04/03 09:30:31;;;;;;;2.42;1.38;;;;;;;;;;5005434;27;20375;-80
2022/04/03 09:32:57;;;;;;;1.70;1.02;;;;;;;;;;4987169;28;20448;-80
2022/04/03 09:35:33;;;;;;;1.27;1.17;;;;;;;;;;5010902;27;20064;-81
2022/04/03 09:38:16;;;;;;;4.32;1.75;;;;;;;;;;4994761;28;20052;-79
2022/04/03 09:40:49;;;;;;;2.25;0.70;;;;;;;;;;5002968;27;20045;-85
2022/04/03 09:43:20;;;;;;;4.35;1.65;;;;;;;;;;4993660;28;20153;-79
2022/04/03 09:45:54;;;;;;;2.65;1.50;;;;;;;;;;4996958;28;20115;-78
2022/04/03 09:48:23;;;;;;;0.88;0.85;;;;;;;;;;4987773;28;20038;-78
2022/04/03 09:51:03;;;;;;;1.77;0.80;;;;;;;;;;5009078;27;20125;-78
2022/04/03 09:53:30;;;;;;;4.97;1.25;;;;;;;;;;5003616;27;20038;-78
2022/04/03 09:55:56;;;;;;;1.52;0.73;;;;;;;;;;4993976;28;20056;-77
2022/04/03 09:58:23;;;;;;;4.40;2.10;;;;;;;;;;4987131;27;20118;-79
2022/04/03 10:00:49;;;;;;;7.30;2.42;;;;;;;;;;4981295;28;20148;-79
2022/04/03 10:03:16;;;;;;;2.72;1.17;;;;;;;;;;4985321;27;20045;-79
2022/04/03 10:05:42;;;;;;;8.38;3.47;;;;;;;;;;5009568;27;20935;-79
2022/04/03 10:08:08;;;;;;;6.82;2.15;;;;;;;;;;4989387;28;22169;-79
2022/04/03 10:10:36;;;;;;;5.68;3.45;;;;;;;;;;4992013;27;20072;-79
2022/04/03 10:13:03;;;;;;;5.85;1.92;;;;;;;;;;4986691;28;20050;-76
2022/04/03 10:15:30;;;;;;;5.15;2.75;;;;;;;;;;4972012;28;20093;-80
2022/04/03 10:17:57;;;;;;;4.60;1.33;;;;;;;;;;4989709;28;20034;-78
2022/04/03 10:20:30;;;;;;;3.22;1.67;;;;;;;;;;4989541;28;20581;-79
2022/04/03 10:22:59;;;;;;;8.18;2.20;;;;;;;;;;4993342;28;20059;-79
2022/04/03 10:25:27;;;;;;;5.30;1.70;;;;;;;;;;4982938;28;20046;-80
2022/04/03 10:27:56;;;;;;;4.72;2.35;;;;;;;;;;4984186;28;20102;-79
2022/04/03 10:30:33;;;;;;;6.78;2.33;;;;;;;;;;4995349;28;20051;-79
2022/04/03 10:33:00;;;;;;;3.08;1.30;;;;;;;;;;4981122;28;20050;-79
2022/04/03 10:35:26;;;;;;;3.33;1.55;;;;;;;;;;4973560;28;20125;-78
2022/04/03 10:38:03;;;;;;;3.42;1.23;;;;;;;;;;4981364;28;20050;-79
2022/04/03 10:40:31;;;;;;;2.55;1.10;;;;;;;;;;4986112;28;20046;-79
2022/04/03 10:43:01;;;;;;;1.27;0.77;;;;;;;;;;4966909;28;20070;-79
2022/04/03 10:45:30;;;;;;;0.65;0.65;;;;;;;;;;4985006;28;20108;-78
2022/04/03 10:48:14;;;;;;;3.03;1.00;;;;;;;;;;4991930;28;20053;-78
2022/04/03 10:51:01;;;;;;;1.52;1.20;;;;;;;;;;4984498;28;20046;-82
2022/04/03 10:53:31;;;;;;;3.85;1.05;;;;;;;;;;4983522;28;20046;-82
2022/04/03 10:55:58;;;;;;;1.10;0.80;;;;;;;;;;4988409;28;20043;-81
2022/04/03 10:58:24;;;;;;;1.90;0.70;;;;;;;;;;4972497;28;20042;-80
2022/04/03 11:00:52;;;;;;;0.68;0.50;;;;;;;;;;4976602;28;20054;-82
2022/04/03 11:03:18;;;;;;;1.35;0.82;;;;;;;;;;4998277;28;20046;-81
2022/04/03 11:05:46;;;;;;;2.03;1.13;;;;;;;;;;4982783;28;20069;-81
2022/04/03 11:08:12;;;;;;;2.55;1.02;;;;;;;;;;4972197;28;20046;-81
2022/04/03 11:10:55;;;;;;;0.85;0.73;;;;;;;;;;4993934;28;20047;-81
2022/04/03 11:13:37;;;;;;;1.17;0.80;;;;;;;;;;4989511;28;20051;-77
2022/04/03 11:16:09;;;;;;;2.60;1.10;;;;;;;;;;4996900;28;20048;-80
2022/04/03 11:18:35;;;;;;;1.95;1.02;;;;;;;;;;4984719;28;20133;-80
2022/04/03 11:21:08;;;;;;;3.20;1.30;;;;;;;;;;5001246;28;20049;-77
2022/04/03 11:23:34;;;;;;;;;;;;;;;;;;4986948;28;20053;-79
2022/04/03 11:26:00;;;;;;;1.80;0.80;;;;;;;;;;4988152;28;19921;-81
2022/04/03 11:28:26;;;;;;;0.63;0.60;;;;;;;;;;4991377;28;20189;-82
2022/04/03 11:30:53;;;;;;;2.08;0.60;;;;;;;;;;5007347;28;20038;-77
2022/04/03 11:33:19;;;;;;;1.50;0.80;;;;;;;;;;4985493;28;20077;-77
2022/04/03 11:35:46;;;;;;;1.20;0.90;;;;;;;;;;4984933;28;20086;-78
2022/04/03 11:38:13;;;;;;;2.30;0.95;;;;;;;;;;5006363;28;20053;-76
2022/04/03 11:40:42;;;;;;;1.27;0.82;;;;;;;;;;5001377;28;20653;-83
2022/04/03 11:43:19;;;;;;;1.90;1.08;;;;;;;;;;4988697;28;20594;-77
2022/04/03 11:45:58;;;;;;;2.17;1.00;;;;;;;;;;4994684;28;20041;-78
2022/04/03 11:48:26;;;;;;;1.33;0.95;;;;;;;;;;5002748;28;20053;-76
2022/04/03 11:51:03;;;;;;;3.35;1.45;;;;;;;;;;5004008;28;20070;-76
2022/04/03 11:53:29;;;;;;;2.55;0.93;;;;;;;;;;4990110;28;20050;-77
2022/04/03 11:55:56;;;;;;;1.38;0.70;;;;;;;;;;5008828;28;20121;-77
2022/04/03 11:58:32;;;;;;;2.22;1.35;;;;;;;;;;4989331;28;20055;-77
2022/04/03 12:00:58;;;;;;;0.85;0.80;;;;;;;;;;5001389;28;20039;-77
2022/04/03 12:03:28;;;;;;;3.20;1.02;;;;;;;;;;4982884;28;20050;-77
2022/04/03 12:06:31;;;;;;;2.33;1.10;;;;;;;;;;4987558;28;20172;-77
2022/04/03 12:08:57;;;;;;;0.85;0.70;;;;;;;;;;4969702;28;20050;-78
2022/04/03 12:11:24;;;;;;;0.40;0.40;;;;;;;;;;4985192;28;20408;-77
2022/04/03 12:13:54;;;;;;;1.48;1.17;;;;;;;;;;5003315;28;20121;-77
2022/04/03 12:16:22;;;;;;;0.90;0.63;;;;;;;;;;4969839;28;20118;-76
2022/04/03 12:18:58;;;;;;;1.08;0.88;;;;;;;;;;4979515;28;20038;-76
2022/04/03 12:21:43;;;;;;;1.05;0.82;;;;;;;;;;4975765;28;21439;-78
2022/04/03 12:24:13;;;;;;;3.33;1.33;;;;;;;;;;4983998;28;20520;-77
2022/04/03 12:27:00;;;;;;;1.10;1.00;;;;;;;;;;4992746;28;20133;-74
2022/04/03 12:29:27;;;;;;;1.83;1.05;;;;;;;;;;4987339;28;20043;-83
2022/04/03 12:32:12;;;;;;;0.80;0.60;;;;;;;;;;4968411;28;20043;-79
2022/04/03 12:34:40;;;;;;;1.15;0.90;;;;;;;;;;4967058;28;20043;-76
2022/04/03 12:37:07;;;;;;;1.58;1.48;;;;;;;;;;4984191;28;20621;-79
2022/04/03 12:39:52;;;;;;;1.48;1.20;;;;;;;;;;4988367;28;20047;-80
2022/04/03 12:42:24;;;;;;;1.00;0.82;;;;;;;;;;4988740;28;20044;-86
2022/04/03 12:44:58;;;;;;;1.05;0.65;;;;;;;;;;4988943;28;20034;-79
2022/04/03 12:47:30;;;;;;;1.90;1.00;;;;;;;;;;4974935;28;20294;-82
2022/04/03 12:49:56;;;;;;;;;;;;;;;;;;4971102;28;20520;-83
2022/04/03 12:52:40;;;;;;;1.15;1.05;;;;;;;;;;4971742;28;20165;-85
2022/04/03 12:55:07;;;;;;;1.90;1.00;;;;;;;;;;4979569;28;20156;-88
2022/04/03 13:00:18;;;;;;;1.13;0.90;;;;;;;;;;5150952;27;20113;-82
2022/04/03 13:02:50;;;;;;;1.63;0.98;;;;;;;;;;5151559;27;20611;-82
2022/04/03 13:05:19;;;;;;;0.57;0.57;;;;;;;;;;5130811;27;20063;-82
2022/04/03 13:07:48;;;;;;;2.42;1.08;;;;;;;;;;5147170;27;20046;-82
2022/04/03 13:10:19;;;;;;;4.57;0.90;;;;;;;;;;5132793;27;20034;-81
2022/04/03 13:12:49;;;;;;;1.10;0.70;;;;;;;;;;5127096;27;20038;-81
2022/04/03 13:15:17;;;;;;;1.20;0.77;;;;;;;;;;5130338;27;20146;-82
2022/04/03 13:17:44;;;;;;;0.95;0.70;;;;;;;;;;5153710;27;20042;-81
2022/04/03 13:20:11;;;;;;;1.20;0.88;;;;;;;;;;5133990;27;21275;-82
2022/04/03 13:22:37;;;;;;;1.45;0.80;;;;;;;;;;5131399;27;20043;-84
2022/04/03 13:25:03;;;;;;;1.55;0.90;;;;;;;;;;5134785;27;20039;-82
2022/04/03 13:27:29;;;;;;;1.50;0.90;;;;;;;;;;5133742;27;20035;-82
2022/04/03 13:29:57;;;;;;;1.63;0.80;;;;;;;;;;5135251;27;20078;-81
2022/04/03 13:32:23;;;;;;;1.77;0.80;;;;;;;;;;5134542;27;20046;-81
2022/04/03 13:34:49;;;;;;;1.35;0.90;;;;;;;;;;5133574;27;20034;-82
2022/04/03 13:37:15;;;;;;;2.63;1.75;;;;;;;;;;5148126;27;20092;-82
2022/04/03 13:39:41;;;;;;;1.60;0.98;;;;;;;;;;5132232;27;20058;-84
2022/04/03 13:42:10;;;;;;;0.95;0.93;;;;;;;;;;5130815;27;20142;-82
2022/04/03 13:44:37;;;;;;;1.23;0.82;;;;;;;;;;5128204;27;20500;-83
2022/04/03 13:47:04;;;;;;;4.03;0.85;;;;;;;;;;5133640;27;20162;-83
2022/04/03 13:49:30;;;;;;;2.80;1.15;;;;;;;;;;5146407;27;20129;-83
2022/04/03 13:51:56;;;;;;;2.15;1.60;;;;;;;;;;5132140;27;20589;-82
2022/04/03 13:54:22;;;;;;;1.23;0.80;;;;;;;;;;5150835;27;20147;-81
2022/04/03 13:56:48;;;;;;;1.52;0.80;;;;;;;;;;5128933;27;20878;-80
2022/04/03 13:59:14;;;;;;;1.20;0.85;;;;;;;;;;5145853;27;20066;-82
2022/04/03 14:01:40;;;;;;;1.23;0.75;;;;;;;;;;5147525;27;20543;-83
2022/04/03 14:04:07;;;;;;;3.05;0.98;;;;;;;;;;5135844;27;20047;-85
2022/04/03 14:06:33;;;;;;;1.77;0.98;;;;;;;;;;5152889;27;20046;-87
2022/04/03 14:08:59;;;;;;;2.00;0.85;;;;;;;;;;5132207;27;20046;-85
2022/04/03 14:11:26;;;;;;;1.55;1.02;;;;;;;;;;5152183;27;20148;-85
2022/04/03 14:13:53;;;;;;;2.05;0.88;;;;;;;;;;5149169;27;20043;-86
2022/04/03 14:16:20;;;;;;;1.23;0.63;;;;;;;;;;5138653;27;20057;-87
2022/04/03 14:18:47;;;;;;;1.33;1.05;;;;;;;;;;5130798;27;20043;-86
2022/04/03 14:21:13;;;;;;;1.73;1.10;;;;;;;;;;5136515;27;20043;-87
2022/04/03 14:23:40;;;;;;;1.63;1.10;;;;;;;;;;5141316;27;20524;-86
2022/04/03 14:26:08;;;;;;;0.98;0.80;;;;;;;;;;5134121;27;20524;-86
2022/04/03 14:28:35;;;;;;;4.28;1.13;;;;;;;;;;5131599;27;20617;-86
2022/04/03 14:31:01;;;;;;;2.50;1.17;;;;;;;;;;5137046;27;20066;-86
2022/04/03 14:33:28;;;;;;;1.38;0.80;;;;;;;;;;5135526;27;20046;-86
2022/04/03 14:35:56;;;;;;;1.10;0.90;;;;;;;;;;5134170;27;20031;-86
2022/04/03 14:38:26;;;;;;;2.90;0.95;;;;;;;;;;5134845;27;20162;-86
2022/04/03 14:40:53;;;;;;;1.77;0.90;;;;;;;;;;5144738;27;20063;-85
2022/04/03 14:43:21;;;;;;;2.47;1.30;;;;;;;;;;5137503;27;20082;-86